createdAt,value
2023-04-29T00:02:31.878Z,82.65
2023-04-29T00:07:33.770Z,82.60
2023-04-29T00:12:35.088Z,83.55
2023-04-29T00:17:36.926Z,82.78
2023-04-29T00:22:38.408Z,82.67
2023-04-29T00:27:40.075Z,82.31
2023-04-29T00:32:41.371Z,81.88
2023-04-29T00:37:42.659Z,82.46
2023-04-29T00:42:43.910Z,81.98
2023-04-29T00:47:45.235Z,81.85
2023-04-29T00:52:46.869Z,81.98
2023-04-29T00:57:49.885Z,81.84
2023-04-29T01:02:51.277Z,82.64
2023-04-29T01:07:52.726Z,84.38
2023-04-29T01:12:54.760Z,84.07
2023-04-29T01:17:56.054Z,84.31
2023-04-29T01:22:57.362Z,83.90
2023-04-29T01:27:58.825Z,85.95
2023-04-29T01:33:00.437Z,87.34
2023-04-29T01:38:02.599Z,86.19
2023-04-29T01:43:04.370Z,89.66
2023-04-29T01:48:05.708Z,90.86
2023-04-29T01:53:07.951Z,91.71
2023-04-29T01:58:09.388Z,91.87
2023-04-29T02:03:10.804Z,94.46
2023-04-29T02:08:12.933Z,95.96
2023-04-29T02:13:14.184Z,95.34
2023-04-29T02:18:15.520Z,92.67
2023-04-29T02:23:17.297Z,90.48
2023-04-29T02:28:18.522Z,88.59
2023-04-29T02:33:20.322Z,88.04
2023-04-29T02:38:21.588Z,87.54
2023-04-29T02:43:23.139Z,86.99
2023-04-29T02:48:24.344Z,85.43
2023-04-29T02:53:25.552Z,87.37
2023-04-29T02:58:26.843Z,87.02
2023-04-29T03:03:28.308Z,87.13
2023-04-29T03:08:29.616Z,87.21
2023-04-29T03:13:30.872Z,86.95
2023-04-29T03:18:32.336Z,86.14
2023-04-29T03:23:33.635Z,85.67
2023-04-29T03:28:34.869Z,88.08
2023-04-29T03:33:36.131Z,88.00
2023-04-29T03:38:37.445Z,88.67
2023-04-29T03:43:38.670Z,89.33
2023-04-29T03:48:39.938Z,87.46
2023-04-29T03:53:41.173Z,88.26
2023-04-29T03:58:42.405Z,88.66
2023-04-29T04:03:43.734Z,87.23
2023-04-29T04:08:45.059Z,85.94
2023-04-29T04:13:46.308Z,86.14
2023-04-29T04:18:47.525Z,86.19
2023-04-29T04:23:48.753Z,86.81
2023-04-29T04:28:50.108Z,84.73
2023-04-29T04:33:51.390Z,83.44
2023-04-29T04:38:52.676Z,83.55
2023-04-29T04:43:53.982Z,83.13
2023-04-29T04:48:55.261Z,83.69
2023-04-29T04:53:56.502Z,83.59
2023-04-29T04:58:57.716Z,83.74
2023-04-29T05:03:59.171Z,85.21
2023-04-29T05:09:00.566Z,85.30
2023-04-29T05:14:01.814Z,84.88
2023-04-29T05:19:03.166Z,86.90
2023-04-29T05:24:04.437Z,87.04
2023-04-29T05:29:05.869Z,86.56
2023-04-29T05:34:07.162Z,87.89
2023-04-29T05:39:08.399Z,90.63
2023-04-29T05:44:09.668Z,91.15
2023-04-29T05:49:10.970Z,85.97
2023-04-29T05:54:12.247Z,88.49
2023-04-29T05:59:13.465Z,90.07
2023-04-29T06:04:14.878Z,90.08
2023-04-29T06:09:26.380Z,89.69
2023-04-29T06:14:28.600Z,89.54
2023-04-29T06:19:29.874Z,88.50
2023-04-29T06:24:31.430Z,88.20
2023-04-29T06:29:32.712Z,88.17
2023-04-29T06:34:33.942Z,88.89
2023-04-29T06:39:35.736Z,88.28
2023-04-29T06:44:37.057Z,87.96
2023-04-29T06:49:38.342Z,88.11
2023-04-29T06:54:39.578Z,87.43
2023-04-29T06:59:40.987Z,86.25
2023-04-29T07:04:42.379Z,86.75
2023-04-29T07:09:43.612Z,86.70
2023-04-29T07:14:44.859Z,85.52
2023-04-29T07:19:46.346Z,82.86
2023-04-29T07:24:47.570Z,79.78
2023-04-29T07:29:49.823Z,77.96
2023-04-29T07:34:52.823Z,71.56
2023-04-29T07:39:54.461Z,73.00
2023-04-29T07:44:55.885Z,72.89
2023-04-29T07:49:57.390Z,73.45
2023-04-29T07:54:58.597Z,72.80
2023-04-29T07:59:59.883Z,70.27
2023-04-29T08:05:02.844Z,70.36
2023-04-29T08:10:04.982Z,71.24
2023-04-29T08:15:07.701Z,69.85
2023-04-29T08:20:10.377Z,69.79
2023-04-29T08:25:11.843Z,71.98
2023-04-29T08:30:13.150Z,69.42
2023-04-29T08:35:15.238Z,69.83
2023-04-29T08:40:16.639Z,71.72
2023-04-29T08:45:17.905Z,70.39
2023-04-29T08:50:20.443Z,67.81
2023-04-29T08:55:21.938Z,68.63
2023-04-29T09:00:23.198Z,67.51
2023-04-29T09:05:24.444Z,68.44
2023-04-29T09:10:25.857Z,67.32
2023-04-29T09:15:28.525Z,65.91
2023-04-29T09:20:29.935Z,64.50
2023-04-29T09:25:31.803Z,64.86
2023-04-29T09:30:33.075Z,63.59
2023-04-29T09:35:34.370Z,64.39
2023-04-29T09:40:46.632Z,65.82
2023-04-29T09:45:57.302Z,65.85
2023-04-29T09:50:58.584Z,61.85
2023-04-29T09:55:59.949Z,59.95
2023-04-29T10:01:01.668Z,63.21
2023-04-29T10:06:03.245Z,62.64
2023-04-29T10:11:04.556Z,65.14
2023-04-29T10:16:07.585Z,62.27
2023-04-29T10:21:09.698Z,63.36
2023-04-29T10:26:10.975Z,64.39
2023-04-29T10:31:13.561Z,64.81
2023-04-29T10:36:15.006Z,67.06
2023-04-29T10:41:16.295Z,68.36
2023-04-29T10:46:17.652Z,69.86
2023-04-29T10:51:18.991Z,69.49
2023-04-29T10:56:20.217Z,69.55
2023-04-29T11:01:21.489Z,70.81
2023-04-29T11:06:22.774Z,65.72
2023-04-29T11:11:24.644Z,60.61
2023-04-29T11:16:29.947Z,60.59
2023-04-29T11:21:32.631Z,61.40
2023-04-29T11:26:34.135Z,58.89
2023-04-29T11:31:35.611Z,62.54
2023-04-29T11:36:37.090Z,62.47
2023-04-29T11:41:38.647Z,60.47
2023-04-29T11:46:40.078Z,61.54
2023-04-29T11:51:41.540Z,58.94
2023-04-29T11:56:43.067Z,59.50
2023-04-29T12:01:44.411Z,59.69
2023-04-29T12:06:46.255Z,61.01
2023-04-29T12:11:47.518Z,61.84
2023-04-29T12:16:49.622Z,59.29
2023-04-29T12:21:52.279Z,60.44
2023-04-29T12:26:54.639Z,61.32
2023-04-29T12:31:55.978Z,62.24
2023-04-29T12:36:58.204Z,63.38
2023-04-29T12:41:59.492Z,60.19
2023-04-29T12:47:00.927Z,57.51
2023-04-29T12:52:03.030Z,58.65
2023-04-29T12:57:04.442Z,59.91
2023-04-29T13:02:05.823Z,57.49
2023-04-29T13:07:07.305Z,57.51
2023-04-29T13:12:09.474Z,57.98
2023-04-29T13:17:11.322Z,58.46
2023-04-29T13:22:12.682Z,55.47
2023-04-29T13:27:13.942Z,54.62
2023-04-29T13:32:17.392Z,52.57
2023-04-29T13:37:22.551Z,53.97
2023-04-29T13:42:26.918Z,51.12
2023-04-29T13:47:30.363Z,51.53
2023-04-29T14:02:41.750Z,49.85
2023-04-29T14:07:43.168Z,53.33
2023-04-29T14:12:44.439Z,51.85
2023-04-29T14:17:45.824Z,49.94
2023-04-29T14:22:47.156Z,51.10
2023-04-29T14:27:49.200Z,52.53
2023-04-29T14:32:50.782Z,53.60
2023-04-29T14:37:52.110Z,54.38
2023-04-29T14:42:53.325Z,52.90
2023-04-29T14:47:54.643Z,53.48
2023-04-29T14:52:57.731Z,50.02
2023-04-29T14:57:58.994Z,50.79
2023-04-29T15:03:02.053Z,48.89
2023-04-29T15:08:04.913Z,50.21
2023-04-29T15:13:06.684Z,52.55
2023-04-29T15:18:08.865Z,51.07
2023-04-29T15:23:10.432Z,49.76
2023-04-29T15:28:11.637Z,51.52
2023-04-29T15:33:12.902Z,49.83
2023-04-29T15:38:14.217Z,52.03
2023-04-29T15:43:15.598Z,55.22
2023-04-29T15:48:17.257Z,53.86
2023-04-29T15:53:18.652Z,56.18
2023-04-29T15:58:19.950Z,56.80
2023-04-29T16:03:21.411Z,57.02
2023-04-29T16:08:23.175Z,56.52
2023-04-29T16:13:24.460Z,57.41
2023-04-29T16:18:25.703Z,56.80
2023-04-29T16:23:26.957Z,56.24
2023-04-29T16:28:28.250Z,56.12
2023-04-29T16:33:29.610Z,55.29
2023-04-29T16:38:31.102Z,56.17
2023-04-29T16:43:32.305Z,57.33
2023-04-29T16:48:33.576Z,58.23
2023-04-29T16:53:34.784Z,56.90
2023-04-29T16:58:36.061Z,57.38
2023-04-29T17:03:37.371Z,57.92
2023-04-29T17:08:38.622Z,58.29
2023-04-29T17:13:39.958Z,58.08
2023-04-29T17:18:41.636Z,57.98
2023-04-29T17:23:42.970Z,55.97
2023-04-29T17:28:44.303Z,57.46
2023-04-29T17:33:54.886Z,57.78
2023-04-29T17:38:56.213Z,58.67
2023-04-29T17:43:57.774Z,58.71
2023-04-29T17:48:59.026Z,59.22
2023-04-29T17:54:00.581Z,59.28
2023-04-29T17:59:02.302Z,59.35
2023-04-29T18:04:03.877Z,59.68
2023-04-29T18:09:05.385Z,60.87
2023-04-29T18:14:06.675Z,60.90
2023-04-29T18:19:08.005Z,61.24
2023-04-29T18:24:09.432Z,61.80
2023-04-29T18:29:10.685Z,60.47
2023-04-29T18:34:11.928Z,59.60
2023-04-29T18:39:13.186Z,60.79
2023-04-29T18:44:14.466Z,61.55
2023-04-29T18:49:17.630Z,61.61
2023-04-29T18:54:18.995Z,61.36
2023-04-29T18:59:20.230Z,61.17
2023-04-29T19:04:21.923Z,63.09
2023-04-29T19:09:23.192Z,64.05
2023-04-29T19:14:24.480Z,64.02
2023-04-29T19:19:25.699Z,66.23
2023-04-29T19:24:26.960Z,66.49
2023-04-29T19:29:28.306Z,66.57
2023-04-29T19:34:29.548Z,66.67
2023-04-29T19:39:31.023Z,67.78
2023-04-29T19:44:32.292Z,67.26
2023-04-29T19:49:33.881Z,67.13
2023-04-29T19:54:35.630Z,66.89
2023-04-29T19:59:36.914Z,66.62
2023-04-29T20:04:38.212Z,66.49
2023-04-29T20:09:40.249Z,65.87
2023-04-29T20:14:41.732Z,65.47
2023-04-29T20:19:42.958Z,64.54
2023-04-29T20:24:44.859Z,63.69
2023-04-29T20:29:46.124Z,62.82
2023-04-29T20:34:47.353Z,62.83
2023-04-29T20:39:48.675Z,62.80
2023-04-29T20:44:49.895Z,63.65
2023-04-29T20:49:51.426Z,63.08
2023-04-29T20:54:53.154Z,62.75
2023-04-29T20:59:54.633Z,63.55
2023-04-29T21:04:55.998Z,64.28
2023-04-29T21:09:57.229Z,63.64
2023-04-29T21:14:58.445Z,63.24
2023-04-29T21:19:59.728Z,63.26
2023-04-29T21:25:01.025Z,62.80
2023-04-29T21:30:02.283Z,63.59
2023-04-29T21:35:03.512Z,62.86
2023-04-29T21:40:04.868Z,63.72
2023-04-29T21:45:06.121Z,63.01
2023-04-29T21:50:07.514Z,63.21
2023-04-29T21:55:08.740Z,64.12
2023-04-29T22:00:20.453Z,62.99
2023-04-29T22:05:21.698Z,63.31
2023-04-29T22:10:22.894Z,63.31
2023-04-29T22:15:28.802Z,62.46
2023-04-29T22:20:30.950Z,63.02
2023-04-29T22:25:32.235Z,64.22
2023-04-29T22:30:33.552Z,64.31
2023-04-29T22:35:34.825Z,64.96
2023-04-29T22:40:37.281Z,64.43
2023-04-29T22:45:38.657Z,65.01
2023-04-29T22:50:39.907Z,65.45
2023-04-29T22:55:41.135Z,64.74
2023-04-29T23:00:42.327Z,65.76
2023-04-29T23:05:43.582Z,65.01
2023-04-29T23:10:44.800Z,63.69
2023-04-29T23:15:46.135Z,63.82
2023-04-29T23:20:47.813Z,64.45
2023-04-29T23:25:49.092Z,63.90
2023-04-29T23:30:50.358Z,64.69
2023-04-29T23:35:51.636Z,65.04
2023-04-29T23:40:52.849Z,64.04
2023-04-29T23:45:54.339Z,63.98
2023-04-29T23:50:55.669Z,63.53
2023-04-29T23:55:56.910Z,63.75
